Time;durP1;ratioP1;P1;durP2;ratioP2;P2;SDS_P1;SDS_P2;PMS_P1;PMS_P2;Temp;Humidity;BMP_temperature;BMP_pressure;BME280_temperature;BME280_humidity;BME280_pressure;Samples;Min_cycle;Max_cycle;Signal;HPM_P1;HPM_P2
2022/04/03 00:01:56;;;;;;;4.20;2.03;;;-2.10;99.90;;;;;;5030746;28;20419;-77
2022/04/03 00:04:24;;;;;;;3.20;2.35;;;-2.00;99.90;;;;;;5036025;28;20251;-76
2022/04/03 00:06:50;;;;;;;3.47;2.00;;;-2.00;99.90;;;;;;5021182;28;20049;-76
2022/04/03 00:09:15;;;;;;;3.85;1.80;;;-2.00;99.90;;;;;;5031476;28;20086;-76
2022/04/03 00:11:41;;;;;;;3.05;2.08;;;-2.10;99.90;;;;;;5045060;28;20375;-76
2022/04/03 00:14:08;;;;;;;4.38;2.28;;;-2.10;99.90;;;;;;5034947;28;20538;-76
2022/04/03 00:16:35;;;;;;;4.05;1.98;;;-2.10;99.90;;;;;;5034811;28;20045;-76
2022/04/03 00:19:00;;;;;;;2.83;2.15;;;-1.30;99.90;;;;;;5029962;28;20112;-77
2022/04/03 00:21:26;;;;;;;3.13;2.00;;;-2.10;99.90;;;;;;5043215;28;20419;-77
2022/04/03 00:23:52;;;;;;;4.95;2.33;;;-2.10;99.90;;;;;;5041798;28;20049;-76
2022/04/03 00:26:18;;;;;;;3.83;2.28;;;-2.10;99.90;;;;;;5043288;28;20041;-77
2022/04/03 00:28:44;;;;;;;3.83;1.90;;;-2.10;99.90;;;;;;5029977;28;20414;-76
2022/04/03 00:31:12;;;;;;;3.67;2.10;;;-2.10;99.90;;;;;;5035336;28;20048;-76
2022/04/03 00:33:38;;;;;;;2.92;2.03;;;-2.10;99.90;;;;;;5040644;28;20111;-76
2022/04/03 00:36:04;;;;;;;5.53;2.42;;;-1.70;99.90;;;;;;5047572;28;20037;-77
2022/04/03 00:38:30;;;;;;;3.15;2.10;;;-2.10;99.90;;;;;;5033265;28;20069;-76
2022/04/03 00:40:57;;;;;;;4.93;2.17;;;-2.10;99.90;;;;;;5045334;28;20075;-76
2022/04/03 00:43:23;;;;;;;3.28;2.20;;;-1.60;99.90;;;;;;5045014;28;20048;-76
2022/04/03 00:45:48;;;;;;;7.93;2.47;;;-1.80;99.90;;;;;;5029095;28;20068;-76
2022/04/03 00:48:15;;;;;;;8.23;2.95;;;-2.10;99.90;;;;;;5045182;28;20067;-76
2022/04/03 00:50:42;;;;;;;4.05;2.10;;;-2.20;99.90;;;;;;5044079;28;20044;-76
2022/04/03 00:53:08;;;;;;;4.40;2.22;;;-2.20;99.90;;;;;;5048410;28;20040;-77
2022/04/03 00:55:34;;;;;;;3.65;2.40;;;-2.10;99.90;;;;;;5025133;28;20041;-76
2022/04/03 00:58:01;;;;;;;3.10;2.67;;;-2.20;99.90;;;;;;5045852;28;20055;-76
2022/04/03 01:00:27;;;;;;;4.43;2.63;;;-2.20;99.90;;;;;;5044547;28;20045;-76
2022/04/03 01:02:53;;;;;;;4.25;2.78;;;-2.20;99.90;;;;;;5047336;28;20025;-76
2022/04/03 01:05:18;;;;;;;4.03;2.90;;;-2.20;99.90;;;;;;5045307;28;20517;-76
2022/04/03 01:07:45;;;;;;;6.40;2.92;;;-2.20;99.90;;;;;;5044308;28;20049;-76
2022/04/03 01:10:11;;;;;;;5.75;3.10;;;-2.20;99.90;;;;;;5042071;28;20116;-77
2022/04/03 01:12:45;;;;;;;4.82;2.70;;;-2.30;99.90;;;;;;5045022;28;20557;-76
2022/04/03 01:15:15;;;;;;;4.03;3.00;;;-2.30;99.90;;;;;;5044162;28;20041;-76
2022/04/03 01:17:41;;;;;;;5.93;3.50;;;-2.30;99.90;;;;;;5044051;28;20552;-76
2022/04/03 01:20:08;;;;;;;4.72;3.33;;;-2.30;99.90;;;;;;5039691;28;20033;-76
2022/04/03 01:22:34;;;;;;;3.40;2.70;;;-2.30;99.90;;;;;;5045061;28;21555;-76
2022/04/03 01:24:59;;;;;;;3.80;2.60;;;-2.30;99.90;;;;;;5042807;28;20601;-76
2022/04/03 01:27:25;;;;;;;3.95;2.40;;;-1.70;99.90;;;;;;5046466;28;20041;-76
2022/04/03 01:29:52;;;;;;;7.72;3.03;;;-2.20;99.90;;;;;;5044711;28;20040;-76
2022/04/03 01:32:21;;;;;;;8.05;2.90;;;-2.20;99.90;;;;;;5045847;28;20044;-76
2022/04/03 01:34:47;;;;;;;3.75;2.50;;;-2.20;99.90;;;;;;5040167;28;20034;-76
2022/04/03 01:37:13;;;;;;;7.10;2.90;;;-1.10;99.90;;;;;;5063134;28;20049;-76
2022/04/03 01:39:39;;;;;;;4.00;2.45;;;-2.20;99.90;;;;;;5030568;28;20044;-76
2022/04/03 01:42:04;;;;;;;5.25;2.78;;;-2.10;99.90;;;;;;5037699;28;20126;-76
2022/04/03 01:44:30;;;;;;;4.68;2.50;;;-2.20;99.90;;;;;;5031799;28;20054;-76
2022/04/03 01:46:56;;;;;;;5.72;2.67;;;-2.20;99.90;;;;;;5044575;28;20041;-76
2022/04/03 01:49:22;;;;;;;10.00;2.60;;;-2.20;99.90;;;;;;5040245;28;20085;-76
2022/04/03 01:51:48;;;;;;;5.25;3.10;;;-2.10;99.90;;;;;;5029971;28;20053;-76
2022/04/03 01:54:14;;;;;;;3.95;2.70;;;-2.20;99.90;;;;;;5030918;28;20029;-76
2022/04/03 01:56:40;;;;;;;4.65;2.55;;;-2.20;99.90;;;;;;5042477;28;20662;-76
2022/04/03 01:59:06;;;;;;;6.45;3.20;;;-2.20;99.90;;;;;;5044925;28;20045;-76
2022/04/03 02:01:33;;;;;;;3.33;2.33;;;-2.20;99.90;;;;;;5046964;28;20039;-76
2022/04/03 02:04:00;;;;;;;4.10;2.60;;;-2.20;99.90;;;;;;5043852;28;20037;-76
2022/04/03 02:06:27;;;;;;;5.80;2.80;;;-2.20;99.90;;;;;;5047277;28;20049;-76
2022/04/03 02:08:53;;;;;;;3.90;2.30;;;-2.20;99.90;;;;;;5044688;28;20119;-76
2022/04/03 02:11:19;;;;;;;4.00;2.42;;;-2.20;99.90;;;;;;5046247;28;20689;-77
2022/04/03 02:13:45;;;;;;;7.10;3.88;;;-2.20;99.90;;;;;;5044823;28;20036;-76
2022/04/03 02:16:11;;;;;;;3.33;2.50;;;-1.10;99.90;;;;;;5045133;28;20431;-76
2022/04/03 02:18:37;;;;;;;5.03;2.65;;;-2.20;99.90;;;;;;5045488;28;20045;-76
2022/04/03 02:21:03;;;;;;;4.80;2.65;;;-2.20;99.90;;;;;;5048667;28;20033;-76
2022/04/03 02:23:29;;;;;;;5.25;2.50;;;-2.10;99.90;;;;;;5049499;28;20037;-76
2022/04/03 02:25:55;;;;;;;3.25;2.67;;;-2.10;99.90;;;;;;5052590;28;20047;-76
2022/04/03 02:28:21;;;;;;;4.97;2.72;;;-2.10;99.90;;;;;;5047838;28;20052;-76
2022/04/03 02:30:47;;;;;;;5.38;3.20;;;-2.00;99.90;;;;;;5044652;28;20095;-76
2022/04/03 02:33:13;;;;;;;5.47;2.80;;;-2.10;99.90;;;;;;5048399;28;20650;-76
2022/04/03 02:35:39;;;;;;;5.32;2.67;;;-2.00;99.90;;;;;;5049890;28;20636;-76
2022/04/03 02:38:05;;;;;;;4.15;2.40;;;-2.00;99.90;;;;;;5049682;28;20037;-76
2022/04/03 02:40:31;;;;;;;5.18;2.65;;;-2.10;99.90;;;;;;5033643;28;20041;-76
2022/04/03 02:42:57;;;;;;;7.32;2.83;;;-2.10;99.90;;;;;;5046878;28;20104;-76
2022/04/03 02:45:23;;;;;;;6.13;2.97;;;-2.10;99.90;;;;;;5048818;28;20055;-76
2022/04/03 02:47:51;;;;;;;3.88;2.83;;;-2.10;99.90;;;;;;5048181;28;20041;-76
2022/04/03 02:50:19;;;;;;;4.28;2.88;;;-2.10;99.90;;;;;;5044502;28;20120;-76
2022/04/03 02:52:46;;;;;;;7.47;3.35;;;-2.10;99.90;;;;;;5031500;28;20053;-76
2022/04/03 02:55:12;;;;;;;4.45;3.25;;;-2.10;99.90;;;;;;5069354;28;20049;-76
2022/04/03 02:57:38;;;;;;;4.25;2.83;;;-1.30;99.90;;;;;;5032436;28;20689;-76
2022/04/03 03:00:06;;;;;;;5.18;3.20;;;-2.10;99.90;;;;;;5047889;28;20154;-76
2022/04/03 03:02:32;;;;;;;4.40;2.83;;;-2.10;99.90;;;;;;5048896;28;20029;-76
2022/04/03 03:04:58;;;;;;;3.47;2.72;;;-2.10;99.90;;;;;;5046435;28;20102;-76
2022/04/03 03:07:24;;;;;;;6.22;2.88;;;-2.10;99.90;;;;;;5049840;28;20123;-76
2022/04/03 03:09:50;;;;;;;5.00;3.13;;;-2.10;99.90;;;;;;5044559;28;20052;-76
2022/04/03 03:12:16;;;;;;;3.67;2.97;;;-2.10;99.90;;;;;;5047037;28;20039;-76
2022/04/03 03:14:42;;;;;;;4.18;3.20;;;-2.10;99.90;;;;;;5047467;28;20178;-76
2022/04/03 03:17:07;;;;;;;5.88;2.63;;;-2.10;99.90;;;;;;5049277;28;20156;-76
2022/04/03 03:19:33;;;;;;;6.40;3.47;;;-2.10;99.90;;;;;;5047903;28;20040;-76
2022/04/03 03:21:59;;;;;;;4.57;2.90;;;-2.10;99.90;;;;;;5050921;28;20033;-76
2022/04/03 03:24:24;;;;;;;4.82;2.88;;;-2.10;99.90;;;;;;5046668;28;20029;-76
2022/04/03 03:26:50;;;;;;;6.40;3.15;;;-2.00;99.90;;;;;;5048120;28;20483;-76
2022/04/03 03:29:16;;;;;;;4.05;2.72;;;-2.00;99.90;;;;;;5043274;28;20179;-76
2022/04/03 03:31:42;;;;;;;5.68;3.17;;;-1.90;99.90;;;;;;5043408;28;20037;-76
2022/04/03 03:34:08;;;;;;;5.00;3.35;;;-1.90;99.90;;;;;;5049839;28;20032;-76
2022/04/03 03:36:34;;;;;;;3.75;2.85;;;-1.80;99.90;;;;;;5048602;28;20041;-76
2022/04/03 03:39:00;;;;;;;5.47;3.17;;;-1.80;99.90;;;;;;5044125;28;20038;-76
2022/04/03 03:41:25;;;;;;;6.63;3.45;;;-1.70;99.90;;;;;;5041989;28;20039;-76
2022/04/03 03:43:51;;;;;;;7.35;3.42;;;-1.60;99.90;;;;;;5046468;28;20509;-76
2022/04/03 03:46:17;;;;;;;7.25;3.85;;;-1.60;99.90;;;;;;5046022;28;20037;-76
2022/04/03 03:48:43;;;;;;;6.05;3.55;;;-1.60;99.90;;;;;;5046979;28;20124;-76
2022/04/03 03:51:08;;;;;;;9.82;4.53;;;-1.50;99.90;;;;;;5047297;28;20047;-76
2022/04/03 03:53:34;;;;;;;5.95;4.03;;;-1.40;99.90;;;;;;5048451;28;20055;-76
2022/04/03 03:56:00;;;;;;;6.32;4.07;;;-1.40;99.90;;;;;;5028101;28;20465;-76
2022/04/03 03:58:26;;;;;;;6.22;3.72;;;-1.30;99.90;;;;;;5047073;28;20041;-76
2022/04/03 04:00:51;;;;;;;7.95;4.05;;;-1.30;99.90;;;;;;5046261;28;20039;-76
2022/04/03 04:03:17;;;;;;;13.10;3.55;;;-1.30;99.90;;;;;;5048715;28;20052;-76
2022/04/03 04:05:44;;;;;;;4.10;3.00;;;-1.20;99.90;;;;;;5043879;28;20037;-76
2022/04/03 04:08:10;;;;;;;8.05;2.83;;;-1.20;99.90;;;;;;5047824;28;20056;-76
2022/04/03 04:10:36;;;;;;;7.75;3.33;;;-0.70;99.90;;;;;;5046586;28;20406;-76
2022/04/03 04:13:03;;;;;;;3.90;3.10;;;-1.10;99.90;;;;;;5047291;28;20123;-76
2022/04/03 04:15:30;;;;;;;7.35;3.42;;;-1.10;99.90;;;;;;5048536;28;20041;-76
2022/04/03 04:17:56;;;;;;;5.88;3.13;;;-1.10;99.90;;;;;;5048336;28;20040;-76
2022/04/03 04:20:23;;;;;;;3.97;2.78;;;-1.00;99.90;;;;;;5045165;28;20449;-76
2022/04/03 04:22:50;;;;;;;7.82;3.70;;;-1.00;99.90;;;;;;5046339;28;20486;-75
2022/04/03 04:25:19;;;;;;;6.13;3.10;;;-0.90;99.90;;;;;;5046283;28;20115;-76
2022/04/03 04:27:46;;;;;;;7.03;3.35;;;-0.90;99.90;;;;;;5046805;28;20504;-76
2022/04/03 04:30:13;;;;;;;10.10;4.10;;;-0.80;99.90;;;;;;5049025;28;20041;-76
2022/04/03 04:32:39;;;;;;;6.35;3.60;;;-0.80;99.90;;;;;;5045201;28;20051;-76
2022/04/03 04:35:05;;;;;;;7.65;4.00;;;-0.80;99.90;;;;;;5044391;28;20029;-77
2022/04/03 04:37:31;;;;;;;7.22;4.28;;;-0.70;99.90;;;;;;5046484;28;20080;-76
2022/04/03 04:39:57;;;;;;;4.68;3.47;;;-0.80;99.90;;;;;;5041863;28;20041;-76
2022/04/03 04:42:24;;;;;;;6.47;3.80;;;-0.70;99.90;;;;;;5039350;28;20040;-76
2022/04/03 04:44:50;;;;;;;8.00;4.38;;;-0.40;99.90;;;;;;5048670;28;20037;-76
2022/04/03 04:47:15;;;;;;;8.07;5.38;;;-0.80;99.90;;;;;;5027226;28;20047;-77
2022/04/03 04:49:41;;;;;;;9.60;5.07;;;-0.80;99.90;;;;;;5020658;28;20053;-76
2022/04/03 04:52:07;;;;;;;7.90;4.65;;;-0.80;99.90;;;;;;5031578;28;20033;-76
2022/04/03 04:54:35;;;;;;;9.57;3.75;;;-0.80;99.90;;;;;;5039896;28;20075;-76
2022/04/03 04:57:01;;;;;;;5.32;3.60;;;-0.80;99.90;;;;;;5021379;28;20116;-77
2022/04/03 04:59:27;;;;;;;6.53;3.65;;;-0.70;99.90;;;;;;5034401;28;20032;-76
2022/04/03 05:01:56;;;;;;;11.90;4.30;;;-0.70;99.90;;;;;;5035649;28;20033;-76
2022/04/03 05:04:23;;;;;;;8.25;4.47;;;-0.60;99.90;;;;;;5034024;28;20037;-76
2022/04/03 05:06:50;;;;;;;9.70;3.85;;;-0.60;99.90;;;;;;5037359;28;20394;-76
2022/04/03 05:09:17;;;;;;;10.73;3.85;;;-0.50;99.90;;;;;;5042624;28;20071;-76
2022/04/03 05:11:45;;;;;;;9.48;4.22;;;-0.50;99.90;;;;;;5014607;28;20040;-77
2022/04/03 05:14:11;;;;;;;7.35;4.40;;;-0.40;99.90;;;;;;5040604;28;20120;-77
2022/04/03 05:16:37;;;;;;;5.68;3.65;;;-0.40;99.90;;;;;;5029933;28;20113;-77
2022/04/03 05:19:03;;;;;;;5.07;3.30;;;-0.40;99.90;;;;;;5030451;28;20499;-76
2022/04/03 05:21:28;;;;;;;6.78;3.60;;;-0.30;99.90;;;;;;5033335;28;20032;-76
2022/04/03 05:23:54;;;;;;;7.47;3.95;;;-0.20;99.90;;;;;;5041873;28;20037;-76
2022/04/03 05:26:20;;;;;;;4.75;3.25;;;-0.10;99.90;;;;;;5027566;28;20076;-76
2022/04/03 05:28:45;;;;;;;5.70;3.40;;;-0.10;99.90;;;;;;5030208;28;20053;-76
2022/04/03 05:31:11;;;;;;;6.75;3.10;;;-0.10;99.90;;;;;;5032141;28;20077;-76
2022/04/03 05:33:37;;;;;;;4.78;3.22;;;-0.10;99.90;;;;;;5041168;28;20537;-76
2022/04/03 05:36:04;;;;;;;5.35;3.05;;;-0.10;99.90;;;;;;5031822;28;20122;-76
2022/04/03 05:38:30;;;;;;;6.75;3.70;;;-0.10;99.90;;;;;;5040639;28;20052;-76
2022/04/03 05:40:56;;;;;;;5.30;3.15;;;-0.10;99.90;;;;;;5034576;28;20076;-77
2022/04/03 05:43:22;;;;;;;6.47;4.07;;;0.00;99.90;;;;;;5020150;28;20123;-77
2022/04/03 05:45:48;;;;;;;4.07;3.15;;;0.20;99.90;;;;;;5027095;28;20127;-77
2022/04/03 05:48:13;;;;;;;5.53;3.08;;;-0.10;99.90;;;;;;5011501;28;20064;-77
2022/04/03 05:50:39;;;;;;;6.07;3.40;;;0.00;99.90;;;;;;5030353;28;20034;-76
2022/04/03 05:53:06;;;;;;;6.40;3.67;;;0.00;99.90;;;;;;5040413;28;20029;-76
2022/04/03 05:55:32;;;;;;;7.07;3.45;;;0.00;99.90;;;;;;5028760;28;20670;-76
2022/04/03 05:57:58;;;;;;;4.68;2.90;;;0.30;99.90;;;;;;5028133;28;20069;-76
2022/04/03 06:00:24;;;;;;;5.65;3.22;;;0.40;99.90;;;;;;5030365;28;20065;-76
2022/04/03 06:02:51;;;;;;;5.38;3.08;;;0.10;99.90;;;;;;5033304;28;20116;-76
2022/04/03 06:05:19;;;;;;;5.03;3.30;;;0.10;99.90;;;;;;5037235;28;20048;-77
2022/04/03 06:07:45;;;;;;;5.07;3.00;;;0.10;99.90;;;;;;5014501;28;20042;-77
2022/04/03 06:10:11;;;;;;;4.95;3.35;;;0.20;99.90;;;;;;5032833;28;20048;-77
2022/04/03 06:12:37;;;;;;;6.22;3.40;;;0.20;99.90;;;;;;5020410;28;20029;-77
2022/04/03 06:15:03;;;;;;;5.05;3.17;;;0.20;99.90;;;;;;5024303;28;20077;-77
2022/04/03 06:17:29;;;;;;;5.32;3.80;;;0.20;99.90;;;;;;5033320;28;20038;-77
2022/04/03 06:19:54;;;;;;;5.40;3.40;;;0.20;99.90;;;;;;5032868;28;20470;-77
2022/04/03 06:22:20;;;;;;;7.70;3.20;;;0.20;99.90;;;;;;5031715;28;20036;-77
2022/04/03 06:24:46;;;;;;;10.52;3.38;;;0.20;99.90;;;;;;5028748;28;20552;-77
2022/04/03 06:27:11;;;;;;;5.00;3.13;;;0.20;99.90;;;;;;5034554;28;20753;-77
2022/04/03 06:29:37;;;;;;;10.85;3.60;;;0.20;99.90;;;;;;5029777;28;20509;-77
2022/04/03 06:32:04;;;;;;;6.97;3.42;;;0.70;99.90;;;;;;5041649;28;20029;-77
2022/04/03 06:34:29;;;;;;;5.63;3.45;;;0.30;99.90;;;;;;5031832;28;20056;-77
2022/04/03 06:36:55;;;;;;;5.28;3.35;;;0.30;99.90;;;;;;5036629;28;20034;-77
2022/04/03 06:39:21;;;;;;;5.35;3.60;;;0.40;99.90;;;;;;5032375;28;20037;-78
2022/04/03 06:41:47;;;;;;;5.57;3.58;;;0.40;99.90;;;;;;5036349;28;20495;-77
2022/04/03 06:44:13;;;;;;;5.82;3.42;;;0.40;99.90;;;;;;5029874;28;20106;-77
2022/04/03 06:46:38;;;;;;;10.57;3.72;;;0.40;99.90;;;;;;5041375;28;20491;-77
2022/04/03 06:49:04;;;;;;;4.10;3.33;;;0.90;99.90;;;;;;5045361;28;20068;-77
2022/04/03 06:51:30;;;;;;;6.10;3.70;;;0.40;99.90;;;;;;5041913;28;20392;-76
2022/04/03 06:53:56;;;;;;;6.75;3.60;;;0.50;99.90;;;;;;5046445;28;20099;-77
2022/04/03 06:56:21;;;;;;;5.78;4.22;;;0.50;99.90;;;;;;5044189;28;20486;-77
2022/04/03 06:58:47;;;;;;;4.88;3.42;;;0.70;99.90;;;;;;5042846;28;20518;-77
2022/04/03 07:01:13;;;;;;;5.03;3.42;;;0.80;99.90;;;;;;5026194;28;20486;-77
2022/04/03 07:03:39;;;;;;;6.45;3.88;;;0.90;99.90;;;;;;5046499;28;20045;-77
2022/04/03 07:06:04;;;;;;;8.02;4.07;;;1.40;99.90;;;;;;5047248;28;20451;-77
2022/04/03 07:08:31;;;;;;;5.93;3.50;;;1.00;99.90;;;;;;5049265;28;20037;-77
2022/04/03 07:10:57;;;;;;;4.32;3.45;;;1.00;99.90;;;;;;5048679;28;20053;-77
2022/04/03 07:13:23;;;;;;;5.85;3.50;;;1.10;99.90;;;;;;5045877;28;20033;-77
2022/04/03 07:15:49;;;;;;;5.35;3.78;;;1.10;99.90;;;;;;5030643;28;20128;-77
2022/04/03 07:18:16;;;;;;;7.80;4.00;;;1.20;99.90;;;;;;5047959;28;20040;-77
2022/04/03 07:20:46;;;;;;;5.07;4.05;;;1.30;99.90;;;;;;5046621;28;20366;-78
2022/04/03 07:23:12;;;;;;;6.80;4.22;;;1.40;99.90;;;;;;5049414;28;20044;-78
2022/04/03 07:25:37;;;;;;;10.60;4.57;;;1.50;99.90;;;;;;5050215;28;20597;-78
2022/04/03 07:28:03;;;;;;;6.15;3.60;;;1.80;99.90;;;;;;5049408;28;20049;-78
2022/04/03 07:30:29;;;;;;;7.15;4.10;;;2.20;99.90;;;;;;5049773;28;20033;-78
2022/04/03 07:32:55;;;;;;;5.10;3.70;;;2.50;99.90;;;;;;5047629;28;20387;-77
2022/04/03 07:35:21;;;;;;;4.25;3.50;;;2.60;99.90;;;;;;5046808;28;20059;-77
2022/04/03 07:37:47;;;;;;;11.45;4.22;;;2.60;99.90;;;;;;5050693;28;20040;-77
2022/04/03 07:40:13;;;;;;;6.70;4.43;;;2.80;99.90;;;;;;5030205;28;20055;-77
2022/04/03 07:42:39;;;;;;;6.55;4.38;;;2.90;99.90;;;;;;5042215;28;20072;-76
2022/04/03 07:45:06;;;;;;;4.90;3.90;;;2.90;99.90;;;;;;5032418;28;20046;-76
2022/04/03 07:47:32;;;;;;;6.68;4.47;;;3.40;99.90;;;;;;5047338;28;20565;-77
2022/04/03 07:49:59;;;;;;;6.35;3.80;;;4.30;99.90;;;;;;5046758;28;20202;-77
2022/04/03 07:52:25;;;;;;;6.05;3.47;;;4.80;99.90;;;;;;5045348;28;20128;-77
2022/04/03 07:54:51;;;;;;;7.65;4.53;;;4.60;99.90;;;;;;5048288;28;20030;-77
2022/04/03 07:57:19;;;;;;;4.15;3.30;;;4.40;99.90;;;;;;5049687;28;20068;-77
2022/04/03 07:59:46;;;;;;;3.15;2.85;;;4.40;99.90;;;;;;5048318;28;20486;-77
2022/04/03 08:02:13;;;;;;;6.45;2.70;;;4.30;99.90;;;;;;5047880;28;20086;-77
2022/04/03 08:04:38;;;;;;;3.95;2.78;;;4.50;99.90;;;;;;5066169;28;20414;-77
2022/04/03 08:07:04;;;;;;;10.93;2.92;;;5.10;99.90;;;;;;5044550;28;20082;-77
2022/04/03 08:09:30;;;;;;;3.30;2.65;;;5.90;99.90;;;;;;5036964;28;20040;-77
2022/04/03 08:11:56;;;;;;;4.32;2.80;;;6.10;99.90;;;;;;5040525;28;20029;-77
2022/04/03 08:14:23;;;;;;;4.40;2.75;;;6.00;99.90;;;;;;5046292;28;20394;-77
2022/04/03 08:16:49;;;;;;;3.60;2.63;;;5.80;99.90;;;;;;5021594;28;20071;-77
2022/04/03 08:19:16;;;;;;;6.35;3.88;;;5.40;99.90;;;;;;5034364;28;20049;-77
2022/04/03 08:21:41;;;;;;;7.43;4.30;;;5.20;99.90;;;;;;5046622;28;20036;-77
2022/04/03 08:24:08;;;;;;;4.85;3.78;;;5.30;99.90;;;;;;5047646;28;20037;-77
2022/04/03 08:26:33;;;;;;;5.68;3.10;;;5.70;99.90;;;;;;5039184;28;20044;-77
2022/04/03 08:28:59;;;;;;;4.10;2.55;;;6.40;99.90;;;;;;5049147;28;20043;-78
2022/04/03 08:31:27;;;;;;;3.55;2.40;;;7.20;99.90;;;;;;5039509;28;20040;-78
2022/04/03 08:33:53;;;;;;;8.75;2.90;;;7.80;99.90;;;;;;5050131;28;20521;-78
2022/04/03 08:36:19;;;;;;;4.13;2.30;;;8.30;99.90;;;;;;5024262;28;20068;-78
2022/04/03 08:38:46;;;;;;;2.58;2.25;;;9.10;99.90;;;;;;5038949;28;20034;-78
2022/04/03 08:41:12;;;;;;;2.70;1.80;;;9.30;99.90;;;;;;5035534;28;20872;-78
2022/04/03 08:43:40;;;;;;;3.40;1.83;;;9.50;99.90;;;;;;5031573;28;20461;-77
2022/04/03 08:46:07;;;;;;;5.65;2.38;;;9.90;99.30;;;;;;5028534;28;20580;-77
2022/04/03 08:48:34;;;;;;;3.08;1.70;;;9.90;98.50;;;;;;5043514;28;20053;-77
2022/04/03 08:51:03;;;;;;;3.80;1.70;;;10.00;99.30;;;;;;5028710;28;20120;-77
2022/04/03 08:53:31;;;;;;;4.15;1.83;;;9.90;97.80;;;;;;5038739;28;20542;-76
2022/04/03 08:55:57;;;;;;;2.17;1.38;;;10.10;96.70;;;;;;4998344;28;20042;-77
2022/04/03 08:58:23;;;;;;;4.63;1.70;;;10.10;98.20;;;;;;5042589;28;20123;-77
2022/04/03 09:00:49;;;;;;;3.30;1.75;;;10.10;98.10;;;;;;5035318;28;20131;-77
2022/04/03 09:03:15;;;;;;;2.65;1.70;;;10.20;97.50;;;;;;5018454;28;20041;-77
2022/04/03 09:05:43;;;;;;;4.40;1.75;;;10.30;97.80;;;;;;5021528;28;20045;-78
2022/04/03 09:08:10;;;;;;;2.38;1.77;;;10.50;96.80;;;;;;5042487;28;20086;-78
2022/04/03 09:10:36;;;;;;;3.42;1.63;;;10.50;97.20;;;;;;5032786;28;20106;-78
2022/04/03 09:13:02;;;;;;;4.45;2.65;;;10.50;97.00;;;;;;5034608;28;20113;-77
2022/04/03 09:15:29;;;;;;;2.97;1.50;;;10.80;97.20;;;;;;5037298;28;20049;-77
2022/04/03 09:17:57;;;;;;;2.70;1.70;;;11.10;96.50;;;;;;5041814;28;20030;-77
2022/04/03 09:20:25;;;;;;;1.95;1.60;;;11.60;95.70;;;;;;5040238;28;20068;-77
2022/04/03 09:22:58;;;;;;;7.47;3.65;;;11.90;95.40;;;;;;5038669;28;20068;-78
2022/04/03 09:25:29;;;;;;;2.15;1.45;;;12.30;94.90;;;;;;5030404;28;20080;-78
2022/04/03 09:28:00;;;;;;;5.85;1.60;;;12.30;94.00;;;;;;5035653;28;20482;-78
2022/04/03 09:30:31;;;;;;;3.25;1.50;;;11.70;93.10;;;;;;5037984;28;20586;-78
2022/04/03 09:32:59;;;;;;;2.30;1.25;;;10.20;92.60;;;;;;5036601;28;20069;-77
2022/04/03 09:35:31;;;;;;;3.78;1.38;;;10.40;93.60;;;;;;5028959;28;20053;-77
2022/04/03 09:38:13;;;;;;;3.80;1.40;;;10.40;92.40;;;;;;5036174;28;20041;-78
2022/04/03 09:40:45;;;;;;;4.72;1.73;;;10.00;93.10;;;;;;5023976;28;20114;-78
2022/04/03 09:43:19;;;;;;;2.73;1.57;;;9.60;93.60;;;;;;5026382;28;20038;-78
2022/04/03 09:46:12;;;;;;;3.47;2.17;;;9.30;94.10;;;;;;5026344;28;20045;-78
2022/04/03 09:48:43;;;;;;;4.03;1.60;;;10.00;94.40;;;;;;5014886;28;20064;-77
2022/04/03 09:51:14;;;;;;;3.47;1.35;;;10.50;94.20;;;;;;5061987;28;20072;-78
2022/04/03 09:53:52;;;;;;;2.60;1.70;;;10.20;92.20;;;;;;5035844;28;20046;-78
2022/04/03 09:56:24;;;;;;;4.38;1.45;;;9.60;91.60;;;;;;5035472;28;20053;-77
2022/04/03 09:58:49;;;;;;;1.42;1.15;;;8.80;92.90;;;;;;5019136;28;20072;-78
2022/04/03 10:01:23;;;;;;;2.85;1.25;;;8.20;93.20;;;;;;5031756;28;20479;-78
2022/04/03 10:03:50;;;;;;;5.47;1.40;;;8.20;94.40;;;;;;5007267;28;20030;-78
2022/04/03 10:06:17;;;;;;;2.58;1.50;;;9.00;95.10;;;;;;5014318;28;20493;-78
2022/04/03 10:08:47;;;;;;;1.80;1.17;;;9.90;94.40;;;;;;5017576;28;20038;-78
2022/04/03 10:11:15;;;;;;;1.05;1.02;;;10.40;93.90;;;;;;4989578;28;20052;-78
2022/04/03 10:13:42;;;;;;;5.03;1.42;;;10.60;93.30;;;;;;5019390;28;20042;-77
2022/04/03 10:16:10;;;;;;;3.88;1.35;;;10.80;92.60;;;;;;5031620;28;20049;-78
2022/04/03 10:18:37;;;;;;;2.88;1.70;;;11.30;92.70;;;;;;4998358;28;20045;-78
2022/04/03 10:21:04;;;;;;;1.73;0.77;;;11.50;92.10;;;;;;5026935;28;20041;-78
2022/04/03 10:23:31;;;;;;;3.25;1.30;;;11.10;90.40;;;;;;5023088;28;20051;-77
2022/04/03 10:25:57;;;;;;;4.82;0.90;;;10.60;89.60;;;;;;5037694;28;20085;-78
2022/04/03 10:28:23;;;;;;;3.22;1.27;;;10.00;90.50;;;;;;5029323;28;20457;-78
2022/04/03 10:31:06;;;;;;;1.90;1.10;;;9.60;91.00;;;;;;5027696;28;20048;-78
2022/04/03 10:33:37;;;;;;;1.25;0.98;;;9.20;90.90;;;;;;5028173;28;20108;-78
2022/04/03 10:36:05;;;;;;;2.83;1.13;;;8.90;91.10;;;;;;5011678;28;20045;-77
2022/04/03 10:38:37;;;;;;;2.72;1.25;;;8.70;91.20;;;;;;5009278;28;20128;-78
2022/04/03 10:41:05;;;;;;;3.72;1.30;;;8.40;91.30;;;;;;5021116;28;20029;-77
2022/04/03 10:43:38;;;;;;;3.33;1.10;;;8.20;91.80;;;;;;5036029;28;20041;-77
2022/04/03 10:46:04;;;;;;;3.33;1.00;;;8.20;92.40;;;;;;5034356;28;20502;-77
2022/04/03 10:48:31;;;;;;;1.15;0.80;;;9.30;92.50;;;;;;5022991;28;20464;-78
2022/04/03 10:51:21;;;;;;;2.63;1.20;;;10.50;91.20;;;;;;5036259;28;20053;-77
2022/04/03 10:53:59;;;;;;;2.65;0.98;;;11.50;89.60;;;;;;5036773;28;20064;-77
2022/04/03 10:56:27;;;;;;;1.40;0.70;;;11.30;86.40;;;;;;5030565;28;20057;-77
2022/04/03 10:58:55;;;;;;;1.42;0.73;;;10.60;85.30;;;;;;5017015;28;20044;-78
2022/04/03 11:01:32;;;;;;;2.60;1.65;;;10.30;86.20;;;;;;5038425;28;20080;-77
2022/04/03 11:04:07;;;;;;;1.63;1.25;;;9.80;89.60;;;;;;5010651;28;20048;-78
2022/04/03 11:06:38;;;;;;;2.03;1.20;;;9.10;89.00;;;;;;5016417;28;20080;-77
2022/04/03 11:09:09;;;;;;;2.55;1.50;;;8.80;90.60;;;;;;5017678;28;20396;-77
2022/04/03 11:11:40;;;;;;;1.80;1.13;;;8.50;91.30;;;;;;5040253;28;20037;-77
2022/04/03 11:14:08;;;;;;;3.30;1.33;;;8.30;91.90;;;;;;5013081;28;20049;-77
2022/04/03 11:16:55;;;;;;;4.15;1.77;;;8.10;92.50;;;;;;5030940;28;20431;-77
2022/04/03 11:19:41;;;;;;;1.88;1.63;;;8.00;92.70;;;;;;5018949;28;20056;-77
2022/04/03 11:22:09;;;;;;;4.15;1.92;;;8.30;93.00;;;;;;5003509;28;20047;-77
2022/04/03 11:24:38;;;;;;;3.30;1.80;;;8.40;92.70;;;;;;5014379;28;20046;-77
2022/04/03 11:27:08;;;;;;;2.50;1.42;;;8.30;92.70;;;;;;5013812;28;20431;-77
2022/04/03 11:29:34;;;;;;;2.17;1.38;;;8.20;93.80;;;;;;5021065;28;20040;-77
2022/04/03 11:32:04;;;;;;;3.28;1.40;;;8.10;94.00;;;;;;5018983;28;20052;-77
2022/04/03 11:34:31;;;;;;;3.78;1.65;;;8.00;94.50;;;;;;5017864;28;20056;-78
2022/04/03 11:36:58;;;;;;;1.98;1.20;;;7.90;94.30;;;;;;5000031;28;20072;-77
2022/04/03 11:39:34;;;;;;;3.15;1.17;;;7.80;94.30;;;;;;5000439;28;20044;-77
2022/04/03 11:42:06;;;;;;;3.20;1.05;;;7.90;94.60;;;;;;5031540;28;20514;-77
2022/04/03 11:44:34;;;;;;;1.23;1.00;;;7.60;94.40;;;;;;4998187;28;20056;-77
2022/04/03 11:47:01;;;;;;;2.03;1.10;;;7.80;94.40;;;;;;5016601;28;20100;-77
2022/04/03 11:49:29;;;;;;;3.05;1.17;;;8.30;93.80;;;;;;5017642;28;20178;-77
2022/04/03 11:52:04;;;;;;;2.03;1.08;;;8.70;93.30;;;;;;4983307;28;20168;-77
2022/04/03 11:54:30;;;;;;;2.90;1.35;;;9.00;92.50;;;;;;5017514;28;20119;-78
2022/04/03 11:57:03;;;;;;;3.97;1.17;;;9.40;91.90;;;;;;5000494;28;20413;-78
2022/04/03 11:59:33;;;;;;;3.60;1.10;;;9.80;90.50;;;;;;5017701;28;20044;-78
2022/04/03 12:01:59;;;;;;;3.05;1.17;;;10.20;91.10;;;;;;5015023;28;20124;-77
2022/04/03 12:04:24;;;;;;;1.45;1.10;;;10.50;90.40;;;;;;5019078;28;20077;-77
2022/04/03 12:06:58;;;;;;;2.08;0.90;;;10.30;88.90;;;;;;5021114;28;20042;-77
2022/04/03 12:09:24;;;;;;;1.70;1.30;;;10.10;88.50;;;;;;5020834;28;20038;-77
2022/04/03 12:11:53;;;;;;;2.13;1.52;;;9.80;88.00;;;;;;5020093;28;20567;-77
2022/04/03 12:14:22;;;;;;;1.30;0.90;;;9.60;89.30;;;;;;5022355;28;20044;-77
2022/04/03 12:16:57;;;;;;;3.30;0.90;;;9.40;88.90;;;;;;5021249;28;20041;-77
2022/04/03 12:19:23;;;;;;;1.00;0.80;;;9.20;89.00;;;;;;5021468;28;20233;-78
2022/04/03 12:21:51;;;;;;;1.55;1.00;;;8.90;89.40;;;;;;5022484;28;20055;-77
2022/04/03 12:24:23;;;;;;;4.30;1.17;;;8.70;90.80;;;;;;5021762;28;20038;-78
2022/04/03 12:27:01;;;;;;;5.72;1.30;;;8.40;90.70;;;;;;5022395;28;20462;-77
2022/04/03 12:29:32;;;;;;;3.15;1.25;;;8.20;91.70;;;;;;5003550;28;20057;-77
2022/04/03 12:32:06;;;;;;;3.55;2.00;;;8.10;93.00;;;;;;5049421;28;20041;-77
2022/04/03 12:34:35;;;;;;;2.38;1.40;;;8.00;93.00;;;;;;5021329;28;20037;-77
2022/04/03 12:37:02;;;;;;;2.45;1.27;;;7.90;93.50;;;;;;5022373;28;20053;-77
2022/04/03 12:39:40;;;;;;;4.10;1.55;;;7.80;93.70;;;;;;5019134;28;20045;-77
2022/04/03 12:42:09;;;;;;;2.22;1.63;;;7.70;95.30;;;;;;5021428;28;20049;-77
2022/04/03 12:45:02;;;;;;;5.35;1.45;;;7.60;94.90;;;;;;5021049;28;20041;-77
2022/04/03 12:47:33;;;;;;;2.92;1.60;;;7.50;95.40;;;;;;5022385;28;20059;-77
2022/04/03 12:50:05;;;;;;;3.42;1.38;;;7.60;95.20;;;;;;5019093;28;20515;-77
2022/04/03 12:52:51;;;;;;;2.17;1.30;;;7.60;95.00;;;;;;5019958;28;20061;-77